20分钟前
罗盘
风向 的 风向 260° Montreal / Les Cèdres Airport 7/25
风向 到 风: 9 千吨, 阵阵 15 千吨, 3 beaufort
0 500 1.500 3.000 5.000 8.000 10.000
没有云
METAR CYUL 190000Z 26009G15KT 15SM SKC M15/M22 A3012 RMK SLP205

METAR定义 | 嵌入

24小时趋势

航班类别VFRLIFR
温度-3 °C-15 °C
风速20 千吨0 千吨
能见度48 公里0 米

更多历史数据

下载我们的安卓应用程序

从你的主屏幕上轻松地访问你的航空天气。
只需一次付费,您就可以获得无广告的体验。

您会帮助我们保持Metar-Taf.com正常运行吗?
您的贡献有助于网站的进一步开发并支付费用。

没有更多广告

您是捐款5美元还是更多?然后,我们将永远不会再向您展示广告,这是我们永恒的感谢!
捐赠前先登录

METAR Montreal / Les Cèdres Airport

Montreal / Les Cèdres Airport是Montréal,加拿大中的小机场。 机场有{a,plural,=1{一条跑道} other{#跑道}}: 7/25

Montreal / Les Cèdres Airport最近未发布观察结果。相反,我们向您显示30 km的报告蒙特利尔皮埃尔·埃利奥特·特鲁多国际机场。 该报告是针对2022年1月18日 19:00, 当地时间进行的。

机场观察

风来自西 (260°)方向,速度为9 千吨。 已测量15 千吨的阵风。

可见度为24 公里。

有没有云。 没有观察到天花板。

温度为-15 °C,阵风为-26 °C。 露点为-22 °C,相对湿度为55%。 海平面上的气压为1020 压力 (QNH)。

评论

  • 海平面压力为1020,5 压力 (SLP205)

白天

今天,太阳从07:29升起,在16:45降落。 这适用于Montreal / Les Cèdres Airport,世界夏令时可能有所不同。 当地时间与世界标准时间之间的时差为-5 小时。 当前,没有夏令时有效。

公司介绍

我们没有关于这个机场的公司信息。

体会

到Vliegles.nl去找飞行课程,跳伞和其他飞行体验。 浏览页面,了解Montreal / Les Cèdres Airport附近所有可用的活动。 你也可以使用搜索功能来寻找你所在地附近的特定飞行课程、跳伞或其他飞行体验。

您是否要在网站上Montreal / Les Cèdres Airport飞行的天气? 阅读更多   自由!